createdAt,value
2023-05-15T00:00:56.308Z,94477.59
2023-05-15T00:03:27.054Z,94445.75
2023-05-15T00:05:55.263Z,94473.19
2023-05-15T00:08:23.199Z,94444.13
2023-05-15T00:11:00.665Z,94455.19
2023-05-15T00:13:30.262Z,94462.22
2023-05-15T00:15:59.646Z,94489.88
2023-05-15T00:18:27.904Z,94505.34
2023-05-15T00:20:55.957Z,94511.56
2023-05-15T00:23:23.940Z,94491.28
2023-05-15T00:25:51.965Z,94490.47
2023-05-15T00:28:19.918Z,94494.06
2023-05-15T00:30:47.896Z,94502.47
2023-05-15T00:33:17.318Z,94512.06
2023-05-15T00:35:46.181Z,94506.59
2023-05-15T00:38:14.156Z,94509.91
2023-05-15T00:40:44.044Z,94501.81
2023-05-15T00:43:13.432Z,94504.06
2023-05-15T00:45:42.387Z,94487.69
2023-05-15T00:48:11.261Z,94490.41
2023-05-15T00:50:43.465Z,94483.88
2023-05-15T00:53:12.207Z,94503.81
2023-05-15T00:55:41.803Z,94506.69
2023-05-15T00:58:11.474Z,94515.69
2023-05-15T01:00:40.150Z,94481.19
2023-05-15T01:03:08.272Z,94500.88
2023-05-15T01:05:36.393Z,94511.16
2023-05-15T01:10:44.202Z,94478.22
2023-05-15T01:13:14.807Z,94500.47
2023-05-15T01:15:43.016Z,94516.63
2023-05-15T01:18:11.310Z,94508.66
2023-05-15T01:20:53.140Z,94497.75
2023-05-15T01:23:30.933Z,94485.13
2023-05-15T01:26:33.729Z,94487.25
2023-05-15T01:29:07.324Z,94474.16
2023-05-15T01:31:39.260Z,94460.19
2023-05-15T01:34:10.668Z,94463.13
2023-05-15T01:36:44.106Z,94478.97
2023-05-15T01:39:13.034Z,94477.44
2023-05-15T01:41:46.893Z,94466.75
2023-05-15T01:44:20.070Z,94460.00
2023-05-15T01:46:52.436Z,94455.03
2023-05-15T01:49:25.063Z,94463.50
2023-05-15T01:51:59.031Z,94451.66
2023-05-15T01:54:29.043Z,94459.22
2023-05-15T01:56:58.693Z,94456.28
2023-05-15T01:59:30.561Z,94453.34
2023-05-15T02:01:59.870Z,94459.69
2023-05-15T02:04:28.683Z,94461.19
2023-05-15T02:06:57.947Z,94467.19
2023-05-15T02:09:27.176Z,94472.16
2023-05-15T02:11:56.853Z,94467.44
2023-05-15T02:14:29.464Z,94472.81
2023-05-15T02:16:57.478Z,94468.06
2023-05-15T02:19:26.330Z,94464.22
2023-05-15T02:21:56.613Z,94456.75
2023-05-15T02:24:27.092Z,94464.59
2023-05-15T02:27:03.993Z,94463.59
2023-05-15T02:29:43.591Z,94446.53
2023-05-15T02:32:19.545Z,94438.25
2023-05-15T02:34:56.783Z,94442.28
2023-05-15T02:37:29.651Z,94429.13
2023-05-15T02:39:59.790Z,94421.34
2023-05-15T02:42:29.257Z,94430.47
2023-05-15T02:44:59.377Z,94422.03
2023-05-15T02:47:29.660Z,94450.97
2023-05-15T02:49:58.691Z,94457.50
2023-05-15T02:52:26.769Z,94423.06
2023-05-15T02:54:55.069Z,94440.66
2023-05-15T02:57:22.977Z,94415.59
2023-05-15T02:59:51.205Z,94414.13
2023-05-15T03:02:20.809Z,94410.97
2023-05-15T03:04:48.770Z,94436.81
2023-05-15T03:07:16.913Z,94438.09
2023-05-15T03:09:44.991Z,94440.31
2023-05-15T03:12:12.900Z,94458.34
2023-05-15T03:14:40.804Z,94460.41
2023-05-15T03:17:08.832Z,94436.00
2023-05-15T03:19:38.256Z,94427.63
2023-05-15T03:22:06.346Z,94435.31
2023-05-15T03:24:34.297Z,94451.94
2023-05-15T03:27:02.370Z,94456.38
2023-05-15T03:29:30.239Z,94441.72
2023-05-15T03:31:58.211Z,94442.88
2023-05-15T03:34:26.327Z,94428.44
2023-05-15T03:36:55.647Z,94435.38
2023-05-15T03:39:23.603Z,94413.91
2023-05-15T03:41:51.587Z,94425.44
2023-05-15T03:44:19.432Z,94428.66
2023-05-15T03:46:47.422Z,94440.38
2023-05-15T03:49:15.331Z,94423.53
2023-05-15T03:51:43.269Z,94430.28
2023-05-15T03:54:12.748Z,94436.81
2023-05-15T03:56:40.735Z,94439.88
2023-05-15T03:59:08.601Z,94442.66
2023-05-15T04:01:46.689Z,94438.16
2023-05-15T04:04:23.602Z,94448.47
2023-05-15T04:06:51.654Z,94439.50
2023-05-15T04:09:21.028Z,94441.81
2023-05-15T04:11:48.890Z,94418.28
2023-05-15T04:14:16.910Z,94440.56
2023-05-15T04:16:45.157Z,94455.34
2023-05-15T04:19:13.232Z,94451.31
2023-05-15T04:21:41.336Z,94467.50
2023-05-15T04:24:09.621Z,94472.19
2023-05-15T04:26:38.948Z,94451.72
2023-05-15T04:29:06.978Z,94441.94
2023-05-15T04:31:35.608Z,94458.56
2023-05-15T04:34:04.420Z,94437.78
2023-05-15T04:36:33.014Z,94455.00
2023-05-15T04:39:00.926Z,94449.44
2023-05-15T04:41:28.915Z,94430.28
2023-05-15T04:43:58.612Z,94422.75
2023-05-15T04:46:26.588Z,94386.41
2023-05-15T04:51:36.466Z,94429.56
2023-05-15T04:54:04.845Z,94407.69
2023-05-15T04:56:33.281Z,94443.84
2023-05-15T04:59:02.684Z,94436.97
2023-05-15T05:01:31.033Z,94441.63
2023-05-15T05:03:59.177Z,94417.75
2023-05-15T05:06:30.453Z,94432.56
2023-05-15T05:08:59.125Z,94427.91
2023-05-15T05:11:27.185Z,94398.03
2023-05-15T05:13:55.147Z,94421.00
2023-05-15T05:16:24.789Z,94421.97
2023-05-15T05:18:52.850Z,94418.22
2023-05-15T05:21:20.851Z,94417.88
2023-05-15T05:23:48.829Z,94407.38
2023-05-15T05:26:16.754Z,94414.38
2023-05-15T05:28:44.655Z,94421.63
2023-05-15T05:31:12.678Z,94425.22
2023-05-15T05:33:42.344Z,94422.97
2023-05-15T05:36:10.826Z,94422.50
2023-05-15T05:38:39.382Z,94421.59
2023-05-15T05:41:07.313Z,94410.81
2023-05-15T05:43:35.162Z,94417.59
2023-05-15T05:46:03.508Z,94393.41
2023-05-15T05:48:31.554Z,94415.16
2023-05-15T05:51:00.942Z,94396.56
2023-05-15T05:53:28.891Z,94406.75
2023-05-15T05:55:57.242Z,94395.53
2023-05-15T05:58:26.233Z,94411.22
2023-05-15T06:00:55.020Z,94406.34
2023-05-15T06:03:24.232Z,94393.66
2023-05-15T06:05:52.999Z,94414.06
2023-05-15T06:08:22.389Z,94426.84
2023-05-15T06:10:50.373Z,94435.78
2023-05-15T06:13:18.569Z,94435.78
2023-05-15T06:15:47.479Z,94419.03
2023-05-15T06:18:15.615Z,94416.84
2023-05-15T06:20:43.595Z,94410.63
2023-05-15T06:23:11.506Z,94415.47
2023-05-15T06:25:41.555Z,94414.97
2023-05-15T06:28:09.526Z,94424.34
2023-05-15T06:30:37.690Z,94423.00
2023-05-15T06:33:06.050Z,94399.91
2023-05-15T06:35:33.984Z,94418.66
2023-05-15T06:38:02.109Z,94438.47
2023-05-15T06:40:30.510Z,94437.47
2023-05-15T06:43:00.033Z,94422.03
2023-05-15T06:45:28.622Z,94437.44
2023-05-15T06:47:58.500Z,94454.19
2023-05-15T06:50:27.811Z,94440.34
2023-05-15T06:52:56.049Z,94451.47
2023-05-15T06:55:24.162Z,94443.63
2023-05-15T06:57:54.027Z,94449.91
2023-05-15T07:00:23.571Z,94437.47
2023-05-15T07:02:51.570Z,94458.56
2023-05-15T07:05:19.736Z,94448.94
2023-05-15T07:07:47.700Z,94463.47
2023-05-15T07:10:15.741Z,94460.88
2023-05-15T07:12:43.713Z,94455.44
2023-05-15T07:15:12.285Z,94435.47
2023-05-15T07:17:50.091Z,94446.19
2023-05-15T07:20:24.779Z,94431.47
2023-05-15T07:22:56.733Z,94439.53
2023-05-15T07:25:25.661Z,94464.50
2023-05-15T07:27:55.007Z,94446.94
2023-05-15T07:30:23.515Z,94462.06
2023-05-15T07:32:52.949Z,94467.53
2023-05-15T07:35:21.020Z,94462.88
2023-05-15T07:37:49.097Z,94452.63
2023-05-15T07:40:17.096Z,94443.16
2023-05-15T07:42:45.439Z,94445.56
2023-05-15T07:45:13.498Z,94458.88
2023-05-15T07:47:46.326Z,94460.47
2023-05-15T07:50:16.885Z,94441.75
2023-05-15T07:52:45.014Z,94442.16
2023-05-15T07:55:13.882Z,94451.41
2023-05-15T07:57:42.243Z,94458.22
2023-05-15T08:00:13.585Z,94450.75
2023-05-15T08:02:42.788Z,94470.09
2023-05-15T08:05:13.360Z,94458.63
2023-05-15T08:07:42.800Z,94466.66
2023-05-15T08:10:11.641Z,94468.69
2023-05-15T08:12:46.141Z,94472.53
2023-05-15T08:15:14.758Z,94462.25
2023-05-15T08:17:42.916Z,94481.56
2023-05-15T08:20:12.049Z,94460.22
2023-05-15T08:22:40.190Z,94442.72
2023-05-15T08:25:10.576Z,94465.66
2023-05-15T08:27:38.496Z,94468.88
2023-05-15T08:30:07.750Z,94471.09
2023-05-15T08:32:35.743Z,94462.44
2023-05-15T08:35:03.728Z,94472.50
2023-05-15T08:37:33.767Z,94464.03
2023-05-15T08:40:01.882Z,94463.09
2023-05-15T08:42:36.140Z,94449.59
2023-05-15T08:45:04.345Z,94458.84
2023-05-15T08:47:38.463Z,94445.16
2023-05-15T08:50:08.389Z,94462.00
2023-05-15T08:52:37.074Z,94468.47
2023-05-15T08:55:06.902Z,94460.81
2023-05-15T08:57:36.998Z,94449.56
2023-05-15T09:00:08.937Z,94434.28
2023-05-15T09:02:37.666Z,94446.34
2023-05-15T09:05:06.759Z,94439.50
2023-05-15T09:07:35.106Z,94431.69
2023-05-15T09:10:04.766Z,94436.31
2023-05-15T09:12:35.018Z,94435.91
2023-05-15T09:15:17.758Z,94452.41
2023-05-15T09:17:46.687Z,94434.50
2023-05-15T09:20:27.976Z,94436.50
2023-05-15T09:22:56.376Z,94419.22
2023-05-15T09:25:38.550Z,94405.75
2023-05-15T09:28:06.958Z,94420.63
2023-05-15T09:30:39.302Z,94417.78
2023-05-15T09:33:07.995Z,94421.59
2023-05-15T09:35:37.925Z,94419.38
2023-05-15T09:38:10.690Z,94398.41
2023-05-15T09:40:40.369Z,94406.78
2023-05-15T09:43:10.832Z,94403.91
2023-05-15T09:45:40.286Z,94410.28
2023-05-15T09:48:11.892Z,94384.53
2023-05-15T09:50:41.112Z,94390.13
2023-05-15T09:53:12.963Z,94380.91
2023-05-15T09:55:43.401Z,94370.38
2023-05-15T09:58:13.035Z,94386.53
2023-05-15T10:00:48.213Z,94399.47
2023-05-15T10:03:18.900Z,94388.50
2023-05-15T10:05:47.056Z,94366.72
2023-05-15T10:08:16.216Z,94388.38
2023-05-15T10:10:44.749Z,94358.50
2023-05-15T10:13:13.229Z,94373.53
2023-05-15T10:15:43.773Z,94375.50
2023-05-15T10:18:12.996Z,94377.06
2023-05-15T10:20:41.117Z,94395.66
2023-05-15T10:23:11.787Z,94393.63
2023-05-15T10:25:43.706Z,94398.19
2023-05-15T10:28:13.281Z,94406.28
2023-05-15T10:30:44.250Z,94389.16
2023-05-15T10:33:14.759Z,94388.38
2023-05-15T10:35:44.629Z,94420.13
2023-05-15T10:38:13.956Z,94418.59
2023-05-15T10:40:42.823Z,94433.34
2023-05-15T10:43:12.827Z,94399.75
2023-05-15T10:45:43.440Z,94429.88
2023-05-15T10:48:12.426Z,94428.69
2023-05-15T10:50:42.672Z,94414.41
2023-05-15T10:53:11.392Z,94414.78
2023-05-15T10:55:39.639Z,94411.78
2023-05-15T10:58:10.491Z,94406.00
2023-05-15T11:00:45.414Z,94382.22
2023-05-15T11:03:15.771Z,94399.69
2023-05-15T11:06:10.028Z,94409.72
2023-05-15T11:08:39.185Z,94393.47
2023-05-15T11:11:07.903Z,94385.53
2023-05-15T11:14:13.502Z,94407.44
2023-05-15T11:17:06.440Z,94397.06
2023-05-15T11:19:36.663Z,94396.41
2023-05-15T11:22:18.552Z,94384.69
2023-05-15T11:24:54.919Z,94401.47
2023-05-15T11:27:24.741Z,94386.16
2023-05-15T11:30:09.249Z,94378.50
2023-05-15T11:32:51.498Z,94380.22
2023-05-15T11:35:22.757Z,94385.63
2023-05-15T11:37:54.073Z,94395.56
2023-05-15T11:40:24.578Z,94395.78
2023-05-15T11:43:07.119Z,94356.56
2023-05-15T11:45:37.214Z,94372.81
2023-05-15T11:48:09.262Z,94375.38
2023-05-15T11:50:37.495Z,94378.09
2023-05-15T11:53:07.035Z,94373.63
2023-05-15T11:55:42.560Z,94380.69
2023-05-15T11:58:15.182Z,94383.03
2023-05-15T12:00:44.393Z,94378.84
2023-05-15T12:03:25.268Z,94374.03
2023-05-15T12:05:59.436Z,94375.34
2023-05-15T12:08:34.458Z,94363.59
2023-05-15T12:11:03.955Z,94346.69
2023-05-15T12:13:33.008Z,94358.63
2023-05-15T12:16:01.848Z,94372.03
2023-05-15T12:18:31.861Z,94372.88
2023-05-15T12:21:00.515Z,94367.72
2023-05-15T12:23:28.930Z,94351.97
2023-05-15T12:26:01.221Z,94349.63
2023-05-15T12:28:30.468Z,94312.13
2023-05-15T12:30:59.283Z,94324.50
2023-05-15T12:33:27.809Z,94320.63
2023-05-15T12:36:01.237Z,94286.63
2023-05-15T12:38:30.743Z,94297.28
2023-05-15T12:40:59.396Z,94277.66
2023-05-15T12:43:27.809Z,94282.78
2023-05-15T12:45:57.053Z,94287.13
2023-05-15T12:48:30.232Z,94294.34
2023-05-15T12:51:05.909Z,94267.69
2023-05-15T12:53:34.633Z,94264.97
2023-05-15T12:56:04.876Z,94268.09
2023-05-15T12:58:33.062Z,94285.72
2023-05-15T13:01:03.666Z,94290.53
2023-05-15T13:03:32.484Z,94305.78
2023-05-15T13:06:03.512Z,94299.75
2023-05-15T13:08:31.609Z,94315.16
2023-05-15T13:11:00.854Z,94288.28
2023-05-15T13:13:43.425Z,94306.91
2023-05-15T13:16:20.433Z,94297.25
2023-05-15T13:18:48.889Z,94280.63
2023-05-15T13:21:18.935Z,94281.56
2023-05-15T13:23:47.002Z,94291.59
2023-05-15T13:26:15.239Z,94280.97
2023-05-15T13:28:43.315Z,94279.94
2023-05-15T13:31:11.592Z,94288.78
2023-05-15T13:33:39.820Z,94291.66
2023-05-15T13:36:09.593Z,94295.44
2023-05-15T13:38:39.293Z,94298.59
2023-05-15T13:41:07.573Z,94287.03
2023-05-15T13:43:35.766Z,94305.66
2023-05-15T13:46:04.775Z,94292.72
2023-05-15T13:48:33.522Z,94308.34
2023-05-15T13:51:01.690Z,94282.38
2023-05-15T13:53:29.910Z,94298.34
2023-05-15T13:55:59.417Z,94306.38
2023-05-15T13:58:27.596Z,94284.06
2023-05-15T14:00:55.620Z,94281.97
2023-05-15T14:03:23.811Z,94300.41
2023-05-15T14:05:51.911Z,94321.13
2023-05-15T14:08:19.976Z,94288.41
2023-05-15T14:10:48.106Z,94297.50
2023-05-15T14:13:17.750Z,94310.97
2023-05-15T14:15:46.424Z,94305.06
2023-05-15T14:18:14.790Z,94265.38
2023-05-15T14:20:42.978Z,94305.78
2023-05-15T14:23:10.946Z,94297.47
2023-05-15T14:25:39.460Z,94290.56
2023-05-15T14:28:07.583Z,94293.44
2023-05-15T14:30:37.043Z,94266.75
2023-05-15T14:33:05.199Z,94278.75
2023-05-15T14:35:33.198Z,94304.06
2023-05-15T14:38:01.338Z,94292.38
2023-05-15T14:40:29.573Z,94281.94
2023-05-15T14:42:57.579Z,94275.34
2023-05-15T14:45:25.936Z,94279.63
2023-05-15T14:47:55.578Z,94285.38
2023-05-15T14:50:23.876Z,94281.72
2023-05-15T14:52:51.958Z,94269.94
2023-05-15T14:55:22.114Z,94263.72
2023-05-15T14:57:50.730Z,94269.28
2023-05-15T15:00:19.229Z,94247.78
2023-05-15T15:02:47.291Z,94255.19
2023-05-15T15:05:16.853Z,94258.22
2023-05-15T15:08:03.467Z,94233.38
2023-05-15T15:10:32.281Z,94245.78
2023-05-15T15:13:01.090Z,94231.63
2023-05-15T15:15:29.760Z,94237.22
2023-05-15T15:17:58.453Z,94252.28
2023-05-15T15:20:29.119Z,94245.44
2023-05-15T15:22:57.410Z,94231.63
2023-05-15T15:25:25.661Z,94216.66
2023-05-15T15:27:53.807Z,94217.91
2023-05-15T15:30:22.024Z,94236.00
2023-05-15T15:32:50.027Z,94246.91
2023-05-15T15:35:18.261Z,94241.34
2023-05-15T15:37:47.782Z,94213.56
2023-05-15T15:40:16.185Z,94235.19
2023-05-15T15:42:44.280Z,94230.94
2023-05-15T15:45:12.621Z,94222.59
2023-05-15T15:47:40.630Z,94241.53
2023-05-15T15:50:12.165Z,94229.44
2023-05-15T15:52:40.232Z,94237.81
2023-05-15T15:55:11.019Z,94215.09
2023-05-15T15:57:44.475Z,94230.03
2023-05-15T16:00:13.799Z,94248.66
2023-05-15T16:02:42.221Z,94245.78
2023-05-15T16:05:11.155Z,94264.38
2023-05-15T16:07:39.164Z,94258.31
2023-05-15T16:10:13.209Z,94243.41
2023-05-15T16:12:42.814Z,94228.16
2023-05-15T16:17:42.968Z,94239.38
2023-05-15T16:20:11.453Z,94252.00
2023-05-15T16:22:41.770Z,94249.31
2023-05-15T16:25:11.527Z,94246.59
2023-05-15T16:27:39.463Z,94258.72
2023-05-15T16:30:09.379Z,94268.56
2023-05-15T16:32:37.433Z,94268.06
2023-05-15T16:35:06.426Z,94255.44
2023-05-15T16:37:37.160Z,94269.16
2023-05-15T16:40:06.145Z,94263.22
2023-05-15T16:42:38.288Z,94282.13
2023-05-15T16:45:07.537Z,94283.31
2023-05-15T16:47:36.454Z,94290.78
2023-05-15T16:50:04.903Z,94300.72
2023-05-15T16:52:33.069Z,94295.09
2023-05-15T16:55:01.055Z,94272.13
2023-05-15T16:57:29.059Z,94281.31
2023-05-15T16:59:58.759Z,94276.50
2023-05-15T17:02:27.250Z,94283.34
2023-05-15T17:04:55.332Z,94281.16
2023-05-15T17:07:23.256Z,94282.34
2023-05-15T17:09:51.269Z,94279.13
2023-05-15T17:12:20.621Z,94280.50
2023-05-15T17:14:49.174Z,94275.28
2023-05-15T17:17:18.805Z,94272.25
2023-05-15T17:19:47.250Z,94276.91
2023-05-15T17:22:15.222Z,94278.78
2023-05-15T17:27:18.562Z,94302.16
2023-05-15T17:29:47.020Z,94298.53
2023-05-15T17:32:15.928Z,94295.41
2023-05-15T17:34:45.992Z,94296.44
2023-05-15T17:37:14.186Z,94297.63
2023-05-15T17:39:42.764Z,94293.66
2023-05-15T17:42:10.832Z,94285.81
2023-05-15T17:44:38.755Z,94286.91
2023-05-15T17:47:06.901Z,94304.09
2023-05-15T17:49:35.251Z,94314.34
2023-05-15T17:52:05.008Z,94313.63
2023-05-15T17:54:33.058Z,94319.47
2023-05-15T17:57:01.328Z,94327.72
2023-05-15T17:59:29.390Z,94319.91
2023-05-15T18:01:57.619Z,94316.28
2023-05-15T18:04:25.648Z,94298.41
2023-05-15T18:06:53.640Z,94311.44
2023-05-15T18:09:24.324Z,94304.72
2023-05-15T18:11:52.815Z,94313.31
2023-05-15T18:14:20.788Z,94277.13
2023-05-15T18:16:48.739Z,94256.69
2023-05-15T18:19:17.006Z,94285.81
2023-05-15T18:21:45.006Z,94290.50
2023-05-15T18:24:12.940Z,94300.56
2023-05-15T18:26:42.331Z,94300.16
2023-05-15T18:29:13.651Z,94303.19
2023-05-15T18:31:41.623Z,94279.69
2023-05-15T18:34:09.614Z,94297.34
2023-05-15T18:36:37.552Z,94301.84
2023-05-15T18:39:05.861Z,94306.25
2023-05-15T18:41:34.005Z,94302.66
2023-05-15T18:44:03.417Z,94309.13
2023-05-15T18:46:31.879Z,94275.72
2023-05-15T18:49:00.004Z,94288.78
2023-05-15T18:51:28.090Z,94276.13
2023-05-15T18:53:56.040Z,94260.84
2023-05-15T18:56:25.230Z,94291.41
2023-05-15T18:58:55.199Z,94297.47
2023-05-15T19:01:24.615Z,94290.22
2023-05-15T19:03:52.846Z,94302.50
2023-05-15T19:06:21.098Z,94288.59
2023-05-15T19:08:49.565Z,94292.63
2023-05-15T19:11:17.611Z,94303.31
2023-05-15T19:13:45.611Z,94310.53
2023-05-15T19:16:13.653Z,94309.34
2023-05-15T19:18:43.316Z,94313.56
2023-05-15T19:21:11.531Z,94300.06
2023-05-15T19:23:41.586Z,94311.94
2023-05-15T19:26:10.897Z,94302.13
2023-05-15T19:28:39.226Z,94316.97
2023-05-15T19:31:14.109Z,94314.78
2023-05-15T19:33:50.123Z,94323.22
2023-05-15T19:36:18.604Z,94322.84
2023-05-15T19:38:46.510Z,94326.06
2023-05-15T19:41:14.759Z,94320.19
2023-05-15T19:43:46.424Z,94313.34
2023-05-15T19:46:14.621Z,94323.03
2023-05-15T19:48:42.910Z,94324.03
2023-05-15T19:51:12.483Z,94318.59
2023-05-15T19:53:41.377Z,94306.75
2023-05-15T19:56:09.680Z,94325.22
2023-05-15T19:58:37.639Z,94318.59
2023-05-15T20:01:05.542Z,94326.22
2023-05-15T20:03:35.015Z,94321.22
2023-05-15T20:06:03.431Z,94306.94
2023-05-15T20:08:32.827Z,94311.78
2023-05-15T20:11:02.118Z,94307.94
2023-05-15T20:13:30.471Z,94311.19
2023-05-15T20:16:00.714Z,94293.28
2023-05-15T20:18:32.215Z,94297.50
2023-05-15T20:21:01.843Z,94293.69
2023-05-15T20:23:30.035Z,94279.00
2023-05-15T20:25:59.579Z,94289.44
2023-05-15T20:28:28.714Z,94265.31
2023-05-15T20:30:57.898Z,94290.66
2023-05-15T20:33:26.110Z,94274.56
2023-05-15T20:35:54.083Z,94277.78
2023-05-15T20:38:25.273Z,94284.63
2023-05-15T20:40:53.677Z,94264.94
2023-05-15T20:43:23.072Z,94261.91
2023-05-15T20:45:51.015Z,94250.03
2023-05-15T20:48:19.116Z,94259.88
2023-05-15T20:50:47.333Z,94251.84
2023-05-15T20:53:15.347Z,94255.47
2023-05-15T20:55:43.359Z,94248.44
2023-05-15T20:58:11.467Z,94248.44
2023-05-15T21:00:40.734Z,94240.41
2023-05-15T21:03:09.387Z,94243.63
2023-05-15T21:05:37.573Z,94233.97
2023-05-15T21:08:05.705Z,94239.75
2023-05-15T21:10:33.661Z,94249.63
2023-05-15T21:13:01.614Z,94247.38
2023-05-15T21:15:29.580Z,94251.81
2023-05-15T21:17:58.998Z,94235.53
2023-05-15T21:20:27.460Z,94250.00
2023-05-15T21:22:55.664Z,94236.78
2023-05-15T21:25:23.825Z,94248.44
2023-05-15T21:27:51.762Z,94252.66
2023-05-15T21:30:19.870Z,94238.81
2023-05-15T21:32:47.807Z,94244.84
2023-05-15T21:35:17.267Z,94230.97
2023-05-15T21:37:45.376Z,94246.84
2023-05-15T21:40:14.277Z,94242.22
2023-05-15T21:42:43.137Z,94239.41
2023-05-15T21:45:11.427Z,94247.63
2023-05-15T21:47:39.446Z,94242.22
2023-05-15T21:50:08.673Z,94224.34
2023-05-15T21:52:37.915Z,94240.41
2023-05-15T21:55:06.652Z,94235.00
2023-05-15T21:57:34.658Z,94240.81
2023-05-15T22:00:02.708Z,94230.38
2023-05-15T22:02:30.747Z,94229.78
2023-05-15T22:04:58.776Z,94246.88
2023-05-15T22:07:26.715Z,94242.03
2023-05-15T22:09:56.192Z,94249.88
2023-05-15T22:12:24.281Z,94254.06
2023-05-15T22:14:59.112Z,94257.88
2023-05-15T22:17:29.181Z,94264.72
2023-05-15T22:20:06.448Z,94252.88
2023-05-15T22:22:35.778Z,94257.88
2023-05-15T22:25:05.747Z,94247.25
2023-05-15T22:27:33.742Z,94268.38
2023-05-15T22:30:01.731Z,94262.16
2023-05-15T22:32:29.761Z,94255.31
2023-05-15T22:34:57.857Z,94253.06
2023-05-15T22:37:25.999Z,94244.25
2023-05-15T22:39:53.952Z,94247.28
2023-05-15T22:42:24.028Z,94248.66
2023-05-15T22:44:52.151Z,94258.13
2023-05-15T22:47:20.162Z,94247.44
2023-05-15T22:49:48.143Z,94252.88
2023-05-15T22:52:16.182Z,94257.09
2023-05-15T22:54:44.087Z,94245.66
2023-05-15T22:57:12.007Z,94238.81
2023-05-15T22:59:41.910Z,94250.47
2023-05-15T23:02:09.940Z,94245.22
2023-05-15T23:04:37.999Z,94215.88
2023-05-15T23:07:06.336Z,94241.19
2023-05-15T23:09:34.209Z,94243.00
2023-05-15T23:12:02.224Z,94244.41
2023-05-15T23:14:31.177Z,94237.00
2023-05-15T23:17:00.533Z,94249.63
2023-05-15T23:19:28.473Z,94239.16
2023-05-15T23:21:56.865Z,94235.53
2023-05-15T23:24:24.854Z,94235.16
2023-05-15T23:26:52.732Z,94242.81
2023-05-15T23:29:20.831Z,94236.38
2023-05-15T23:31:48.814Z,94230.75
2023-05-15T23:34:20.816Z,94237.56
2023-05-15T23:36:48.795Z,94234.56
2023-05-15T23:39:17.178Z,94242.78
2023-05-15T23:41:45.151Z,94233.75
2023-05-15T23:44:13.108Z,94229.94
2023-05-15T23:46:41.021Z,94219.50
2023-05-15T23:49:08.950Z,94227.94
2023-05-15T23:51:38.229Z,94227.16
2023-05-15T23:54:06.507Z,94225.13
2023-05-15T23:56:34.456Z,94218.31
2023-05-15T23:59:02.898Z,94199.81
